createdAt,value
2023-05-05T00:02:05.232Z,18.83
2023-05-05T00:04:32.752Z,18.75
2023-05-05T00:07:00.452Z,18.83
2023-05-05T00:09:27.956Z,18.83
2023-05-05T00:11:55.446Z,18.69
2023-05-05T00:14:24.267Z,18.65
2023-05-05T00:16:52.458Z,18.57
2023-05-05T00:19:19.998Z,18.63
2023-05-05T00:21:47.486Z,18.61
2023-05-05T00:24:14.984Z,18.73
2023-05-05T00:26:42.467Z,18.81
2023-05-05T00:29:09.928Z,18.77
2023-05-05T00:31:38.872Z,18.66
2023-05-05T00:34:06.405Z,18.71
2023-05-05T00:36:34.280Z,18.94
2023-05-05T00:39:01.767Z,18.81
2023-05-05T00:41:29.252Z,18.84
2023-05-05T00:43:56.728Z,18.84
2023-05-05T00:46:26.021Z,18.91
2023-05-05T00:48:55.871Z,18.82
2023-05-05T00:51:25.025Z,18.89
2023-05-05T00:53:52.659Z,18.90
2023-05-05T00:56:21.927Z,18.93
2023-05-05T00:58:50.159Z,18.83
2023-05-05T01:01:18.884Z,18.86
2023-05-05T01:03:46.655Z,18.87
2023-05-05T01:06:37.124Z,18.92
2023-05-05T01:09:12.783Z,18.83
2023-05-05T01:11:46.282Z,18.81
2023-05-05T01:14:16.969Z,18.93
2023-05-05T01:16:56.987Z,18.90
2023-05-05T01:19:50.232Z,18.86
2023-05-05T01:22:24.225Z,18.67
2023-05-05T01:25:11.333Z,18.74
2023-05-05T01:27:50.670Z,18.58
2023-05-05T01:30:35.837Z,18.72
2023-05-05T01:33:07.677Z,18.69
2023-05-05T01:35:41.544Z,18.86
2023-05-05T01:38:15.397Z,18.85
2023-05-05T01:40:47.923Z,18.78
2023-05-05T01:43:19.828Z,18.79
2023-05-05T01:45:49.593Z,18.81
2023-05-05T01:48:21.302Z,18.69
2023-05-05T01:50:50.853Z,18.73
2023-05-05T01:53:21.140Z,18.81
2023-05-05T01:55:50.276Z,18.80
2023-05-05T01:58:18.487Z,18.77
2023-05-05T02:00:48.025Z,18.63
2023-05-05T02:03:18.740Z,18.66
2023-05-05T02:05:49.331Z,18.47
2023-05-05T02:08:17.522Z,18.59
2023-05-05T02:10:45.832Z,18.45
2023-05-05T02:13:15.345Z,18.40
2023-05-05T02:15:44.961Z,18.37
2023-05-05T02:18:13.247Z,18.22
2023-05-05T02:20:42.191Z,18.42
2023-05-05T02:23:10.011Z,18.39
2023-05-05T02:25:41.001Z,18.35
2023-05-05T02:28:14.077Z,18.22
2023-05-05T02:30:42.160Z,18.11
2023-05-05T02:33:12.594Z,18.32
2023-05-05T02:35:42.957Z,18.14
2023-05-05T02:38:17.248Z,18.35
2023-05-05T02:40:47.512Z,18.15
2023-05-05T02:43:20.674Z,18.23
2023-05-05T02:45:48.318Z,18.10
2023-05-05T02:48:15.939Z,18.13
2023-05-05T02:50:44.770Z,18.21
2023-05-05T02:53:12.345Z,18.32
2023-05-05T02:55:44.828Z,17.93
2023-05-05T02:58:21.377Z,17.96
2023-05-05T03:00:56.678Z,18.08
2023-05-05T03:03:31.607Z,18.10
2023-05-05T03:06:03.463Z,18.16
2023-05-05T03:08:37.752Z,18.20
2023-05-05T03:11:07.782Z,18.17
2023-05-05T03:13:37.656Z,18.13
2023-05-05T03:16:08.238Z,18.05
2023-05-05T03:18:38.384Z,18.11
2023-05-05T03:21:08.923Z,18.23
2023-05-05T03:23:37.037Z,18.25
2023-05-05T03:26:04.621Z,18.26
2023-05-05T03:28:32.172Z,18.26
2023-05-05T03:30:59.750Z,18.22
2023-05-05T03:33:27.211Z,18.20
2023-05-05T03:35:54.677Z,17.85
2023-05-05T03:38:23.493Z,17.86
2023-05-05T03:40:50.950Z,17.92
2023-05-05T03:43:19.479Z,18.07
2023-05-05T03:45:46.948Z,17.89
2023-05-05T03:48:14.484Z,17.87
2023-05-05T03:50:41.934Z,17.95
2023-05-05T03:53:09.363Z,17.94
2023-05-05T03:55:38.269Z,18.14
2023-05-05T03:58:05.738Z,18.20
2023-05-05T04:00:34.270Z,18.09
2023-05-05T04:03:01.817Z,17.79
2023-05-05T04:05:29.383Z,17.82
2023-05-05T04:07:57.802Z,17.81
2023-05-05T04:10:25.339Z,17.58
2023-05-05T04:12:54.184Z,17.54
2023-05-05T04:15:21.849Z,17.43
2023-05-05T04:17:49.361Z,17.41
2023-05-05T04:20:16.916Z,17.46
2023-05-05T04:22:44.509Z,17.58
2023-05-05T04:25:11.948Z,17.71
2023-05-05T04:27:39.373Z,17.89
2023-05-05T04:30:10.716Z,17.80
2023-05-05T04:32:38.254Z,17.59
2023-05-05T04:35:06.512Z,17.55
2023-05-05T04:37:34.103Z,17.48
2023-05-05T04:40:01.573Z,17.45
2023-05-05T04:42:29.049Z,17.42
2023-05-05T04:44:56.530Z,17.58
2023-05-05T04:47:25.492Z,17.77
2023-05-05T04:49:55.262Z,17.83
2023-05-05T04:52:22.786Z,17.69
2023-05-05T04:54:50.494Z,17.84
2023-05-05T04:57:17.956Z,17.81
2023-05-05T04:59:45.407Z,17.66
2023-05-05T05:02:12.950Z,17.78
2023-05-05T05:04:41.926Z,17.76
2023-05-05T05:07:09.371Z,17.53
2023-05-05T05:09:36.889Z,17.82
2023-05-05T05:12:05.786Z,17.88
2023-05-05T05:14:37.669Z,17.93
2023-05-05T05:17:05.340Z,17.81
2023-05-05T05:19:32.949Z,17.89
2023-05-05T05:22:01.762Z,17.84
2023-05-05T05:24:29.892Z,17.86
2023-05-05T05:26:57.353Z,17.85
2023-05-05T05:29:24.784Z,17.99
2023-05-05T05:31:52.217Z,17.85
2023-05-05T05:34:19.679Z,17.92
2023-05-05T05:36:47.151Z,17.93
2023-05-05T05:39:15.946Z,18.12
2023-05-05T05:41:43.409Z,18.04
2023-05-05T05:44:10.860Z,17.99
2023-05-05T05:46:38.332Z,17.98
2023-05-05T05:49:05.803Z,17.98
2023-05-05T05:51:33.267Z,18.00
2023-05-05T05:54:00.703Z,18.00
2023-05-05T05:56:29.480Z,18.15
2023-05-05T05:58:56.975Z,17.94
2023-05-05T06:01:24.423Z,18.16
2023-05-05T06:03:51.954Z,18.21
2023-05-05T06:06:19.591Z,18.16
2023-05-05T06:08:47.042Z,17.97
2023-05-05T06:11:14.508Z,18.14
2023-05-05T06:13:43.304Z,18.18
2023-05-05T06:16:10.815Z,18.02
2023-05-05T06:18:38.331Z,18.06
2023-05-05T06:21:06.607Z,17.86
2023-05-05T06:23:34.082Z,18.20
2023-05-05T06:26:01.564Z,18.10
2023-05-05T06:28:29.016Z,18.12
2023-05-05T06:30:57.856Z,18.26
2023-05-05T06:33:25.338Z,18.35
2023-05-05T06:35:53.068Z,18.41
2023-05-05T06:38:20.635Z,18.17
2023-05-05T06:40:48.645Z,18.11
2023-05-05T06:43:16.305Z,18.26
2023-05-05T06:45:44.108Z,18.23
2023-05-05T06:48:13.321Z,18.60
2023-05-05T06:50:40.799Z,18.59
2023-05-05T06:53:08.268Z,18.61
2023-05-05T06:55:35.734Z,18.46
2023-05-05T06:58:03.269Z,18.66
2023-05-05T07:00:30.822Z,18.60
2023-05-05T07:02:58.387Z,18.35
2023-05-05T07:05:27.292Z,18.58
2023-05-05T07:07:55.736Z,18.75
2023-05-05T07:10:24.736Z,18.69
2023-05-05T07:12:54.633Z,18.66
2023-05-05T07:15:28.769Z,18.71
2023-05-05T07:17:57.307Z,18.64
2023-05-05T07:20:25.092Z,18.74
2023-05-05T07:22:54.000Z,18.83
2023-05-05T07:25:22.240Z,19.02
2023-05-05T07:27:49.818Z,19.13
2023-05-05T07:30:19.113Z,19.00
2023-05-05T07:32:47.143Z,19.11
2023-05-05T07:35:14.880Z,19.26
2023-05-05T07:37:42.370Z,19.42
2023-05-05T07:40:12.087Z,19.31
2023-05-05T07:42:39.595Z,19.49
2023-05-05T07:45:08.034Z,19.51
2023-05-05T07:47:35.626Z,19.52
2023-05-05T07:50:03.284Z,19.46
2023-05-05T07:52:45.112Z,19.58
2023-05-05T07:55:16.979Z,19.45
2023-05-05T07:57:44.474Z,19.50
2023-05-05T08:00:13.796Z,19.56
2023-05-05T08:02:41.643Z,19.73
2023-05-05T08:05:10.061Z,19.67
2023-05-05T08:07:41.108Z,19.62
2023-05-05T08:10:10.256Z,19.77
2023-05-05T08:12:39.504Z,19.79
2023-05-05T08:15:08.119Z,19.68
2023-05-05T08:17:47.120Z,19.95
2023-05-05T08:20:14.736Z,19.73
2023-05-05T08:22:42.794Z,20.01
2023-05-05T08:25:11.434Z,20.01
2023-05-05T08:27:41.314Z,19.85
2023-05-05T08:30:10.009Z,20.08
2023-05-05T08:32:38.233Z,20.24
2023-05-05T08:35:07.259Z,20.42
2023-05-05T08:37:35.170Z,20.50
2023-05-05T08:40:03.265Z,20.50
2023-05-05T08:42:38.117Z,20.44
2023-05-05T08:45:10.464Z,20.55
2023-05-05T08:47:39.523Z,20.55
2023-05-05T08:50:10.852Z,20.41
2023-05-05T08:52:40.424Z,20.54
2023-05-05T08:55:15.365Z,20.36
2023-05-05T08:57:46.907Z,20.39
2023-05-05T09:00:18.951Z,20.65
2023-05-05T09:02:47.770Z,20.85
2023-05-05T09:05:15.461Z,20.84
2023-05-05T09:07:43.874Z,21.01
2023-05-05T09:10:13.025Z,21.07
2023-05-05T09:12:41.270Z,21.20
2023-05-05T09:15:10.097Z,21.16
2023-05-05T09:17:39.926Z,21.02
2023-05-05T09:20:09.279Z,21.35
2023-05-05T09:22:38.269Z,21.39
2023-05-05T09:25:06.908Z,21.58
2023-05-05T09:27:38.661Z,21.77
2023-05-05T09:30:07.015Z,21.68
2023-05-05T09:32:46.344Z,21.80
2023-05-05T09:35:14.305Z,22.01
2023-05-05T09:37:41.861Z,22.09
2023-05-05T09:40:10.778Z,22.18
2023-05-05T09:42:38.827Z,22.23
2023-05-05T09:45:25.885Z,22.15
2023-05-05T09:47:59.761Z,22.09
2023-05-05T09:50:30.543Z,22.22
2023-05-05T09:53:00.523Z,22.56
2023-05-05T09:55:28.225Z,22.83
2023-05-05T09:57:55.814Z,22.92
2023-05-05T10:00:38.847Z,22.95
2023-05-05T10:03:07.702Z,22.79
2023-05-05T10:05:48.121Z,22.76
2023-05-05T10:08:15.679Z,22.53
2023-05-05T10:10:57.274Z,22.69
2023-05-05T10:13:25.406Z,22.65
2023-05-05T10:15:54.710Z,22.79
2023-05-05T10:18:24.860Z,23.00
2023-05-05T10:20:59.053Z,22.70
2023-05-05T10:23:35.460Z,22.88
2023-05-05T10:26:05.391Z,23.29
2023-05-05T10:28:34.647Z,22.74
2023-05-05T10:31:12.858Z,23.26
2023-05-05T10:33:55.233Z,23.47
2023-05-05T10:36:24.384Z,22.98
2023-05-05T10:38:56.032Z,22.99
2023-05-05T10:41:24.360Z,22.79
2023-05-05T10:43:53.648Z,22.36
2023-05-05T10:46:21.190Z,22.85
2023-05-05T10:48:56.050Z,22.91
2023-05-05T10:51:39.553Z,23.21
2023-05-05T10:54:13.123Z,22.99
2023-05-05T10:56:42.949Z,23.05
2023-05-05T10:59:40.151Z,23.16
2023-05-05T11:02:24.522Z,23.21
2023-05-05T11:05:10.502Z,23.62
2023-05-05T11:07:38.699Z,23.19
2023-05-05T11:10:08.130Z,23.52
2023-05-05T11:13:09.098Z,23.26
2023-05-05T11:15:40.358Z,23.54
2023-05-05T11:18:08.577Z,23.63
2023-05-05T11:21:08.931Z,23.99
2023-05-05T11:23:36.706Z,23.93
2023-05-05T11:26:04.287Z,23.95
2023-05-05T11:28:32.343Z,23.83
2023-05-05T11:31:19.895Z,23.87
2023-05-05T11:33:47.658Z,24.07
2023-05-05T11:36:17.806Z,23.82
2023-05-05T11:39:02.282Z,23.90
2023-05-05T11:41:56.521Z,23.19
2023-05-05T11:44:31.773Z,23.28
2023-05-05T11:47:29.102Z,23.47
2023-05-05T11:49:56.979Z,23.45
2023-05-05T11:52:30.211Z,23.53
2023-05-05T11:55:03.575Z,23.16
2023-05-05T11:57:31.693Z,23.41
2023-05-05T12:00:01.281Z,23.14
2023-05-05T12:02:30.470Z,23.15
2023-05-05T12:04:59.470Z,23.02
2023-05-05T12:07:29.776Z,22.80
2023-05-05T12:09:57.605Z,22.86
2023-05-05T12:12:36.207Z,22.90
2023-05-05T12:15:04.340Z,22.40
2023-05-05T12:17:43.736Z,22.28
2023-05-05T12:20:13.102Z,22.00
2023-05-05T12:22:42.467Z,22.16
2023-05-05T12:25:10.782Z,22.04
2023-05-05T12:27:38.608Z,21.86
2023-05-05T12:30:14.823Z,21.26
2023-05-05T12:32:42.741Z,20.87
2023-05-05T12:35:11.164Z,19.97
2023-05-05T12:37:39.331Z,19.46
2023-05-05T12:40:29.247Z,18.90
2023-05-05T12:42:58.079Z,18.35
2023-05-05T12:45:25.642Z,18.16
2023-05-05T12:47:53.356Z,18.68
2023-05-05T12:50:30.795Z,18.80
2023-05-05T12:52:58.457Z,18.80
2023-05-05T12:55:36.568Z,18.77
2023-05-05T12:58:05.398Z,18.57
2023-05-05T13:00:33.128Z,18.01
2023-05-05T13:03:00.682Z,18.07
2023-05-05T13:05:32.581Z,17.97
2023-05-05T13:08:00.207Z,17.64
2023-05-05T13:10:28.167Z,17.15
2023-05-05T13:12:56.638Z,17.15
2023-05-05T13:15:25.844Z,17.84
2023-05-05T13:18:00.120Z,17.96
2023-05-05T13:20:27.769Z,18.01
2023-05-05T13:22:55.328Z,18.28
2023-05-05T13:25:22.779Z,18.82
2023-05-05T13:27:50.271Z,19.27
2023-05-05T13:30:17.713Z,19.32
2023-05-05T13:32:46.564Z,19.26
2023-05-05T13:35:16.203Z,19.57
2023-05-05T13:37:44.261Z,19.78
2023-05-05T13:40:13.265Z,19.81
2023-05-05T13:42:40.965Z,19.85
2023-05-05T13:45:09.457Z,19.95
2023-05-05T13:47:37.086Z,19.89
2023-05-05T13:50:07.244Z,20.03
2023-05-05T13:52:34.711Z,19.95
2023-05-05T13:55:02.732Z,19.86
2023-05-05T13:57:30.186Z,19.68
2023-05-05T13:59:57.829Z,19.79
2023-05-05T14:02:25.525Z,19.87
2023-05-05T14:04:52.995Z,19.97
2023-05-05T14:07:21.826Z,20.17
2023-05-05T14:09:49.294Z,20.35
2023-05-05T14:12:16.807Z,20.38
2023-05-05T14:14:44.293Z,20.49
2023-05-05T14:17:12.726Z,20.52
2023-05-05T14:19:40.171Z,20.43
2023-05-05T14:22:07.685Z,20.57
2023-05-05T14:24:36.452Z,20.16
2023-05-05T14:27:04.318Z,20.25
2023-05-05T14:29:31.854Z,20.26
2023-05-05T14:31:59.367Z,19.95
2023-05-05T14:34:26.845Z,20.13
2023-05-05T14:36:54.296Z,20.20
2023-05-05T14:39:21.732Z,20.18
2023-05-05T14:41:50.866Z,20.30
2023-05-05T14:44:18.371Z,20.42
2023-05-05T14:46:46.222Z,20.40
2023-05-05T14:49:14.281Z,20.25
2023-05-05T14:51:42.705Z,19.99
2023-05-05T14:54:24.116Z,19.61
2023-05-05T14:56:56.629Z,19.47
2023-05-05T14:59:24.219Z,19.80
2023-05-05T15:01:51.759Z,20.08
2023-05-05T15:04:19.284Z,20.23
2023-05-05T15:06:46.745Z,19.93
2023-05-05T15:09:14.210Z,19.95
2023-05-05T15:11:41.926Z,19.96
2023-05-05T15:14:10.744Z,19.79
2023-05-05T15:16:38.531Z,19.75
2023-05-05T15:19:06.077Z,19.78
2023-05-05T15:21:33.564Z,19.61
2023-05-05T15:24:01.052Z,19.42
2023-05-05T15:26:28.515Z,18.62
2023-05-05T15:28:55.991Z,18.17
2023-05-05T15:31:24.983Z,18.09
2023-05-05T15:33:52.477Z,17.08
2023-05-05T15:36:22.417Z,17.03
2023-05-05T15:38:50.075Z,16.81
2023-05-05T15:41:17.554Z,16.70
2023-05-05T15:43:45.017Z,16.80
2023-05-05T15:46:12.547Z,16.77
2023-05-05T15:48:41.325Z,16.76
2023-05-05T15:51:08.778Z,16.49
2023-05-05T15:53:36.337Z,16.28
2023-05-05T15:56:03.788Z,16.46
2023-05-05T15:58:31.236Z,16.39
2023-05-05T16:00:58.716Z,16.44
2023-05-05T16:03:26.315Z,16.18
2023-05-05T16:05:55.170Z,16.17
2023-05-05T16:08:22.672Z,16.08
2023-05-05T16:10:50.139Z,16.00
2023-05-05T16:13:17.639Z,15.95
2023-05-05T16:15:45.277Z,15.82
2023-05-05T16:18:12.872Z,15.78
2023-05-05T16:20:40.307Z,15.44
2023-05-05T16:23:09.106Z,15.72
2023-05-05T16:25:36.580Z,15.47
2023-05-05T16:28:04.340Z,15.26
2023-05-05T16:30:31.778Z,15.41
2023-05-05T16:32:59.322Z,15.17
2023-05-05T16:35:27.020Z,15.15
2023-05-05T16:37:54.883Z,15.01
2023-05-05T16:40:23.760Z,15.18
2023-05-05T16:42:51.189Z,14.98
2023-05-05T16:45:18.804Z,15.10
2023-05-05T16:47:46.261Z,15.37
2023-05-05T16:50:13.826Z,15.50
2023-05-05T16:52:41.331Z,15.59
2023-05-05T16:55:09.782Z,15.62
2023-05-05T16:57:38.814Z,15.76
2023-05-05T17:00:09.112Z,15.43
2023-05-05T17:02:36.714Z,15.26
2023-05-05T17:05:04.471Z,15.33
2023-05-05T17:07:32.051Z,15.01
2023-05-05T17:09:59.568Z,15.17
2023-05-05T17:12:27.025Z,14.93
2023-05-05T17:14:55.870Z,14.98
2023-05-05T17:17:23.513Z,15.36
2023-05-05T17:19:50.963Z,15.97
2023-05-05T17:22:18.445Z,15.85
2023-05-05T17:24:45.950Z,16.06
2023-05-05T17:27:13.666Z,16.28
2023-05-05T17:29:41.378Z,15.95
2023-05-05T17:32:10.378Z,15.93
2023-05-05T17:34:37.953Z,15.65
2023-05-05T17:37:05.463Z,16.00
2023-05-05T17:39:33.659Z,15.89
2023-05-05T17:42:01.152Z,16.05
2023-05-05T17:44:28.650Z,16.09
2023-05-05T17:46:56.237Z,16.08
2023-05-05T17:49:25.492Z,15.73
2023-05-05T17:51:53.016Z,15.40
2023-05-05T17:54:20.931Z,15.41
2023-05-05T17:56:48.474Z,15.32
2023-05-05T17:59:15.931Z,15.30
2023-05-05T18:01:43.675Z,15.37
2023-05-05T18:04:11.141Z,15.11
2023-05-05T18:06:39.940Z,15.04
2023-05-05T18:09:09.166Z,15.03
2023-05-05T18:11:37.927Z,15.28
2023-05-05T18:14:05.402Z,15.00
2023-05-05T18:16:33.104Z,14.68
2023-05-05T18:19:00.640Z,14.90
2023-05-05T18:21:29.733Z,14.66
2023-05-05T18:24:07.712Z,14.92
2023-05-05T18:26:48.334Z,14.88
2023-05-05T18:29:16.443Z,14.52
2023-05-05T18:31:44.555Z,14.42
2023-05-05T18:34:12.266Z,14.49
2023-05-05T18:36:39.744Z,14.75
2023-05-05T18:39:08.569Z,14.96
2023-05-05T18:41:37.001Z,14.65
2023-05-05T18:44:04.653Z,14.69
2023-05-05T18:46:32.195Z,14.81
2023-05-05T18:49:00.447Z,14.61
2023-05-05T18:51:28.293Z,14.59
2023-05-05T18:53:55.922Z,14.14
2023-05-05T18:56:24.777Z,14.32
2023-05-05T18:58:52.206Z,14.21
2023-05-05T19:01:20.136Z,14.18
2023-05-05T19:03:48.638Z,14.16
2023-05-05T19:06:16.411Z,14.26
2023-05-05T19:08:45.071Z,14.37
2023-05-05T19:11:14.620Z,14.73
2023-05-05T19:13:43.453Z,14.60
2023-05-05T19:16:11.695Z,14.70
2023-05-05T19:18:39.872Z,14.56
2023-05-05T19:21:07.493Z,14.52
2023-05-05T19:23:36.003Z,14.28
2023-05-05T19:26:05.553Z,14.02
2023-05-05T19:28:33.342Z,14.13
2023-05-05T19:31:02.180Z,14.18
2023-05-05T19:33:29.668Z,13.81
2023-05-05T19:35:57.124Z,13.84
2023-05-05T19:38:24.590Z,13.59
2023-05-05T19:40:53.901Z,13.37
2023-05-05T19:43:21.349Z,13.42
2023-05-05T19:45:48.847Z,13.32
2023-05-05T19:48:17.661Z,13.52
2023-05-05T19:50:45.298Z,13.33
2023-05-05T19:53:12.757Z,13.32
2023-05-05T19:55:40.198Z,13.46
2023-05-05T19:58:07.774Z,13.45
2023-05-05T20:00:35.632Z,13.58
2023-05-05T20:03:03.228Z,13.67
2023-05-05T20:05:32.071Z,14.03
2023-05-05T20:07:59.529Z,14.32
2023-05-05T20:10:27.007Z,14.14
2023-05-05T20:12:54.594Z,13.92
2023-05-05T20:15:22.447Z,13.45
2023-05-05T20:17:50.396Z,13.59
2023-05-05T20:20:19.968Z,13.68
2023-05-05T20:22:49.990Z,13.52
2023-05-05T20:25:17.880Z,13.49
2023-05-05T20:27:45.691Z,13.35
2023-05-05T20:30:14.319Z,12.68
2023-05-05T20:32:41.914Z,12.40
2023-05-05T20:35:12.268Z,12.31
2023-05-05T20:37:39.743Z,12.36
2023-05-05T20:40:10.336Z,12.20
2023-05-05T20:42:38.086Z,12.18
2023-05-05T20:45:06.937Z,12.36
2023-05-05T20:47:35.043Z,12.55
2023-05-05T20:50:02.621Z,12.69
2023-05-05T20:52:30.151Z,12.74
2023-05-05T20:54:57.602Z,12.73
2023-05-05T20:57:26.655Z,12.87
2023-05-05T20:59:54.106Z,13.17
2023-05-05T21:02:21.715Z,13.20
2023-05-05T21:04:49.225Z,12.89
2023-05-05T21:07:16.707Z,12.84
2023-05-05T21:09:46.907Z,12.81
2023-05-05T21:12:14.380Z,12.83
2023-05-05T21:14:45.457Z,12.67
2023-05-05T21:17:12.967Z,12.70
2023-05-05T21:19:41.128Z,12.98
2023-05-05T21:22:08.582Z,12.87
2023-05-05T21:24:36.076Z,12.49
2023-05-05T21:27:03.549Z,12.27
2023-05-05T21:29:34.154Z,11.69
2023-05-05T21:32:03.044Z,11.97
2023-05-05T21:34:30.529Z,11.99
2023-05-05T21:36:58.081Z,11.95
2023-05-05T21:39:25.680Z,11.84
2023-05-05T21:41:53.146Z,11.67
2023-05-05T21:44:21.025Z,11.56
2023-05-05T21:46:48.711Z,11.50
2023-05-05T21:49:18.763Z,11.49
2023-05-05T21:51:46.649Z,11.39
2023-05-05T21:54:14.144Z,11.33
2023-05-05T21:56:41.743Z,11.47
2023-05-05T21:59:09.272Z,11.47
2023-05-05T22:01:36.835Z,11.65
2023-05-05T22:04:04.616Z,11.71
2023-05-05T22:06:33.472Z,11.78
2023-05-05T22:09:01.168Z,11.75
2023-05-05T22:11:28.643Z,11.53
2023-05-05T22:13:56.260Z,11.44
2023-05-05T22:16:23.773Z,11.60
2023-05-05T22:18:51.309Z,11.64
2023-05-05T22:21:18.949Z,11.43
2023-05-05T22:23:47.787Z,11.34
2023-05-05T22:26:15.345Z,11.47
2023-05-05T22:28:42.830Z,11.53
2023-05-05T22:31:10.317Z,11.59
2023-05-05T22:33:37.893Z,11.47
2023-05-05T22:36:05.562Z,11.42
2023-05-05T22:38:33.026Z,11.16
2023-05-05T22:41:01.900Z,11.15
2023-05-05T22:43:29.376Z,11.17
2023-05-05T22:45:57.825Z,11.11
2023-05-05T22:48:25.349Z,11.27
2023-05-05T22:50:52.792Z,11.25
2023-05-05T22:53:20.390Z,11.10
2023-05-05T22:55:47.839Z,11.17
2023-05-05T22:58:16.626Z,11.55
2023-05-05T23:00:44.134Z,11.63
2023-05-05T23:03:12.085Z,11.39
2023-05-05T23:05:39.541Z,11.23
2023-05-05T23:08:07.037Z,11.36
2023-05-05T23:10:34.568Z,11.77
2023-05-05T23:13:02.068Z,11.93
2023-05-05T23:15:30.989Z,12.08
2023-05-05T23:17:58.488Z,12.31
2023-05-05T23:20:26.164Z,12.05
2023-05-05T23:22:53.595Z,11.98
2023-05-05T23:25:21.044Z,11.97
2023-05-05T23:27:48.742Z,11.80
2023-05-05T23:30:16.555Z,11.38
2023-05-05T23:32:45.968Z,11.05
2023-05-05T23:35:13.553Z,10.97
2023-05-05T23:37:41.006Z,10.95
2023-05-05T23:40:09.788Z,10.88
2023-05-05T23:42:37.248Z,10.81
2023-05-05T23:45:05.222Z,10.78
2023-05-05T23:47:32.739Z,10.88
2023-05-05T23:50:01.831Z,10.82
2023-05-05T23:52:29.301Z,10.86
2023-05-05T23:54:56.778Z,10.91
2023-05-05T23:57:24.309Z,10.89
2023-05-05T23:59:51.747Z,10.90
